KAPG/APG METAR and TAF weather

Enter ICAO airport designator
Station Type Date Time Source
KAPG METAR 2022/11/29 21:58 UTC NOAA

KAPG 292158Z 00000KT 8SM BKN200 08/01 A3023 RMK AO2A LAST AO2A SLP241


Station Type Date Time Source
KAPG Decoded METAR 2022/11/29 21:58 UTC NOAA

Phillips Army Air Field / Aberdeen, MD, United States (KAPG) 39-28N 076-10W
Nov 29, 2022 - 04:58 PM EST / 2022.11.29 2158 UTC
Wind: Calm:0
Visibility: 8 mile(s):0
Sky conditions: mostly cloudy
Temperature: 46 F (8 C)
Dew Point: 33 F (1 C)
Relative Humidity: 61%
Pressure (altimeter): 30.23 in. Hg (1023 hPa)
ob: KAPG 292158Z 00000KT 8SM BKN200 08/01 A3023 RMK AO2A LAST AO2A SLP241
cycle: 22

Station Type Date Time Source
KAPG TAF UTC NOAA

Error!

Example: see airport list